10 Km du Grand Ales - 13/11/2011

10 Km qualificatif


Pl Do. Nom - Surname Prénom - Name S-Cat /cat Club - Team TEMPS - Time Km/h /sx
1 46 MANSE GILLES MSE 1 ALES CEVENNES ATHLETISME 00:30:43 19,5 1
2 2 BERRAHO CHRISTOPHER MSE 2 ALES CEVENNES ATHLETISME 00:30:43 19,5 2
3 11 DEROBERT DAMIEN MSE 3 ALES CEVENNES ATHLETISME 00:30:52 19,4 3
4 13 FOULQUIER CEDRIC MSE 4 ALES CEVENNES ATHLETISME 00:30:56 19,4 4
5 3 BALLESTER CYRILLE MSE 5 ALES CEVENNES ATHLETISME 00:31:08 19,3 5
6 478 CANOVAS GUILLAUME MSE 6 TEMPS COURSE 00:31:18 19,2 6
7 479 SCHERSCHEL LIONEL MES 1 CA PEZENAS 00:31:32 19,0 7
8 518 RIVIERE NICOLAS MSE 7 MAAM 00:31:40 18,9 8
9 27 MANZANARES FABIEN MV1 1 NL 00:32:03 18,7 9
10 41 OUZINEB ABDESLAM MSE 8 SCO ST MARGUERITTE 00:32:07 18,7 10
11 519 BARAS EDDY MSE 9 NL 00:32:10 18,7 11
12 551 GIMENEZ MANUEL MV1 2 OM ATHLETISME 00:32:12 18,6 12
13 517 DJEDJIG RASIK MSE 10 MAAM 00:32:23 18,5 13
14 22 DAUMUR SAMUEL MSE 11 ENDURANCE SHOP 00:32:25 18,5 14
15 520 LELUT FRANCK MSE 12 CASPG 00:32:53 18,2 15
16 10 BUGEAUD SEBASTIEN MSE 13 ALES CEVENNES ATHLETISME 00:33:19 18,0 16
17 695 ALTUR JOSE LUIS MV1 3 NL 00:33:22 18,0 17
18 700 RIBEIRO ROBERT MV1 4 ACP AGDE 00:33:26 17,9 18
19 50 MORALES ANTONIO MSE 14 SDA AIX EN OTHE 00:33:28 17,9 19
20 21 MOULAY GILLES MV2 1 ALES CEVENNES ATHLETISME 00:33:29 17,9 20
21 30 VLAEMYNCK JULIEN MSE 15 VITROLLE TRI 00:33:31 17,9 21
22 45 RODIER HERVE MV1 5 OM ATHLETISME 00:33:38 17,8 22
23 57 CAMPS CHRISTOPHE MSE 16 AVIGNON PONTET TRIAT 00:33:42 17,8 23
24 521 ORDONEZ EDGAR MSE 17 AMICALE RUNNING 66.COM 00:33:48 17,7 24
25 15 RAFINESQUE GUILLAUME MSE 18 ALES CEVENNES ATHLETISME 00:33:49 17,7 25
26 537 DIEU DANY MSE 19 RC ARRAS 00:33:58 17,7 26
27 28 GIBERT FREDERIC MSE 20 ACN ANDUZE 00:33:59 17,7 27
28 397 DELUBAC EMMANUEL MSE 21 ATHLE SUD ARDECHE DROME 00:34:00 17,6 28
29 302 VIAU STEPHANE MV1 6 NL 00:34:02 17,6 29
30 23 BERTRAND CYRIL MSE 22 VEDAS ENDURANCE 00:34:05 17,6 30
31 580 DESSEIN JEAN SEBASTIEN MV1 7 ACN ANDUZE 00:34:05 17,6 31
32 617 FANGUIN SEBASTIEN MSE 23 ATHLE 48 00:34:12 17,5 32
33 713 MARQUET FREDERIC MSE 24 AS VILLENEUVE LES AVIGNONS 00:34:29 17,4 33
34 657 DURAND ALAIN MV1 8 MAAM 00:34:29 17,4 34
35 33 BUISSON CYRIL MSE 25 SCAC 00:34:31 17,4 35
36 329 MEDARD NICOLAS MV1 9 BMA 00:34:34 17,3 36
37 707 GALANT ANGIL MES 2 SP AVEYRON 00:34:35 17,3 37
38 113 LIOTARD DAMIEN MES 3 ALES CEVENNES ATHLETISME 00:34:36 17,3 38
39 495 SEGUIN PIERRE MSE 26 AS ROMAGNAT 00:34:37 17,3 39
40 692 GAULT EMMANUEL MSE 27 UZES AC 00:34:39 17,3 40
41 254 CAMALET DIDIER MSE 28 ATHLE 48 00:34:41 17,3 41
42 710 BILORD ABDESSLEM MV1 10 NL 00:34:43 17,3 42
43 698 FLINCHY JEAN MARC MV1 11 ACP AGDE 00:34:48 17,2 43
44 17 CONDON JEROME MSE 29 ALES CEVENNES ATHLETISME 00:34:59 17,1 44
45 16 CHAMBON DAVID MSE 30 ALES CEVENNES ATHLETISME 00:34:59 17,1 45
46 437 BOUDOUDAH DJAMEL MV1 12 NL 00:35:10 17,1 46
47 211 ARMAND MIKAEL MSE 31 SCAC 00:35:12 17,0 47
48 704 KERMARREC DAVID MSE 32 ACP AGDE 00:35:18 17,0 48
49 269 PERRIER GILLES MSE 33 ASSP VERGEZE 00:35:20 17,0 49
50 40 BACHIR OMAR MES 4 BCAM 00:35:21 17,0 50
51 105 ALEXANDRE NICOLAS MSE 34 ALES CEVENNES ATHLETISME 00:35:21 17,0 51
52 39 DRIDER JIMMY MV1 13 ASVBC 00:35:22 17,0 52
53 90 DIOT GUILLAUME MSE 35 INTERSPORT WH 00:35:25 16,9 53
54 177 COMBE GREGORY MSE 36 BMA 00:35:25 16,9 54
55 43 ABBOUSS MUSTAPHA MSE 37 ASVBC 00:35:27 16,9 55
56 34 BEN GILALLI ABDELLATIF MV1 14 NL 00:35:31 16,9 56
57 465 ROUGET JEAN-WILLY MSE 38 MAAM 00:35:32 16,9 57
58 699 ROUSSEL PATRICK MV3 1 ATHLETIC CLUB DES PAYS D AGDE 00:35:33 16,9 58
59 271 BRUC OLIVIER MSE 39 ASSP VERGEZE 00:35:34 16,9 59
60 563 TARGUES VINCENT MJU 1 ENA 00:35:37 16,8 60
61 574 ALCADE CLAUDE MV1 15 MAAM 00:36:01 16,7 61
62 396 REVERSAT JOHNNY MSE 40 COURIR A VERGEZE 00:36:03 16,6 62
63 97 BENIRBAH AHMED MV1 16 ALES CEVENNES ATHLETISME 00:36:04 16,6 63
64 533 CASTRO BENOIT MSE 41 TIM 503 00:36:05 16,6 64
65 702 BENZEMOUR BOUBDA MV1 17 ACP AGDE 00:36:08 16,6 65
66 4 LAKHOUAD BTISSAM FSE 1 ALES CEVENNES ATHLETISME 00:36:10 16,6 1
67 162 CONNAN JEAN-MARC MV1 18 MARVEJOLS CROSS MARATHON 00:36:12 16,6 66
68 432 ROBOTTI GUILLAUME MSE 42 SC CHATEAURENARD 00:36:19 16,5 67
69 35 GARCIA-NOGUERA GUEWEN MSE 43 EFCVO 00:36:22 16,5 68
70 161 ROVINI STEVE MSE 44 LUNEL ATHLETISME 00:36:23 16,5 69
71 705 GOUCTJIL ALI MV2 2 ACP AGDE 00:36:28 16,5 70
72 5 EL FARISSE OUIDAD FSE 2 ALES CEVENNES ATHLETISME 00:36:34 16,4 2
73 338 DEROCHEBOUET THIERRY MV1 19 SAS BOMPAS 00:36:37 16,4 71
74 690 MERLE JULIEN MSE 45 SALINDRES 00:36:49 16,3 72
75 398 PEREIRA JEAN-PAUL MV1 20 ATHLE SUD ARDECHE DROME 00:36:49 16,3 73
76 100 LACROIX FREDERIC MV1 21 ALES CEVENNES ATHLETISME 00:36:51 16,3 74
77 125 ASSENAT EMERIC MCA 1 ALES CEVENNES ATHLETISME 00:36:55 16,2 75
78 19 CHALIAS JEAN-CLAUDE MV1 22 ACBP 00:36:56 16,2 76
79 248 TONELLI PASCAL MV1 23 ATHLE 48 00:36:57 16,2 77
80 321 CAMBON JEROME MSE 46 NL 00:36:58 16,2 78
81 103 COUGOULAINE CYRIL MJU 2 ALES CEVENNES ATHLETISME 00:36:59 16,2 79
82 404 AZZI SLIMENE MSE 47 NL 00:37:01 16,2 80
83 658 GAUFFRE YVES MV2 3 MAAM 00:37:02 16,2 81
84 18 RENON OLIVIER MV2 4 ACBP 00:37:05 16,2 82
85 270 LIAUTAUD BENJAMIN MSE 48 ASSP VERGEZE 00:37:07 16,2 83
86 89 MAURIN MICHEL MV2 5 SCAC 00:37:11 16,1 84
87 542 GUSTINCIE DAVID MV1 24 ASVA 00:37:12 16,1 85
88 676 RAYSSIGUIER SAMUEL MCA 2 UZES AC 00:37:14 16,1 86
89 720 SOLER JOSE MSE 49 NL 00:37:15 16,1 87
90 480 MAZENC SOPHIE FSE 3 STADE RODEZ ATHLETISME 00:37:16 16,1 3
91 38 GELLY ERIC MV1 25 CASPG 00:37:18 16,1 88
92 128 BILANGE DAVID MV1 26 ALES CEVENNES ATHLETISME 00:37:19 16,1 89
93 706 BAUCHID RACHID MSE 50 ASVL AVIGNON 00:37:20 16,1 90
94 445 NOUVEL THIERRY MV1 27 LGC 00:37:22 16,1 91
95 92 NEDZA CHRISTOPHE MSE 51 ALAJM ST GILLES 00:37:24 16,0 92
96 24 GANGLOFF-MURCIA ROSARIO FV1 1 BEZIERS-HANDI SPORT 00:37:27 16,0 4
97 42 EL HASNAOUI RACHID MSE 52 ASVBC 00:37:30 16,0 93
98 26 VIVANCOS-BOUDIAF NORA FSE 4 NL 00:37:31 16,0 5
99 32 PRONO PASCAL MV1 28 ALES CEVENNES ATHLETISME 00:37:33 16,0 94
100 31 SABATIER LUC MV1 29 NL 00:37:34 16,0 95
101 539 FARGIER JEAN-PIERRE MV1 30 NL 00:37:40 15,9 96
102 77 DURAND GREGORY MSE 53 NL 00:37:40 15,9 97
103 419 AMSALLEM PIERRE MV2 6 NL 00:37:44 15,9 98
104 137 CHAPELLE JEREMIE MSE 54 ALES CEVENNES ATHLETISME 00:37:45 15,9 99
105 157 JEANJEAN ERIC MV1 31 EC ANDUZIEN 00:37:46 15,9 100
106 9 BLANC FLORENCE FSE 5 ALES CEVENNES ATHLETISME 00:37:47 15,9 6
107 365 GERMAIN BRUNO MSE 55 USA AUBENAS 00:37:48 15,9 101
108 12 PRAX GUILHEM MES 5 ALES CEVENNES ATHLETISME 00:37:53 15,8 102
109 621 BLASCO RENAUD MSE 56 SOGECLUB 00:37:55 15,8 103
110 123 NAVARRO ANTHONY MSE 57 ALES CEVENNES ATHLETISME 00:37:56 15,8 104
111 399 MARTIN LAURENT MSE 58 SC CHATEAURENARD 00:38:00 15,8 105
112 697 DASTARAC GERARD MV2 7 NL 00:38:03 15,8 106
113 127 SABADEL MIKE MSE 59 ALES CEVENNES ATHLETISME 00:38:10 15,7 107
114 464 BRUNEL VALENTIN MJU 3 ACN ANDUZE 00:38:21 15,6 108
115 121 CAMBERLAIN DAMIEN MSE 60 ALES CEVENNES ATHLETISME 00:38:27 15,6 109
116 475 GINOUX DAVID MSE 61 NL 00:38:31 15,6 110
117 503 BEDIOUNE LAID MSE 62 NL 00:38:34 15,6 111
118 416 VILLARET JEROME MSE 63 ENA 00:38:34 15,6 112
119 661 PENARRUBIA STEPHAN MV1 32 ACN ANDUZE 00:38:35 15,5 113
120 108 NAIZOT NICOLAS MSE 64 ALES CEVENNES ATHLETISME 00:38:39 15,5 114
121 287 MERLIOT JEAN-LUC MV2 8 NL 00:38:40 15,5 115
122 564 BENYAHIA HASSAN MV1 33 NIMES TRAIL ATTITUDE 00:38:41 15,5 116
123 618 POLGE GUILLAUME MSE 65 SOGECLUB 00:38:42 15,5 117
124 158 RAT MATHIEU MSE 66 COURIR A VERGEZE 00:38:43 15,5 118
125 469 RANC JEROME MV1 34 VELO CLUB SALINDRES 00:38:44 15,5 119
126 653 VIANNAY PHILIPPE MV1 35 NL 00:38:45 15,5 120
127 527 BRUNEL LUC MSE 67 NL 00:38:46 15,5 121
128 167 FOLCHER LAURENT MV1 36 UA CARPENTRAS 00:38:48 15,5 122
129 642 FRANCOIS CHRISTIAN MV1 37 VC SALINDRES 00:38:49 15,5 123
130 244 LAGNEAU CHRISTOPHE MV2 9 MAAM 00:38:52 15,4 124
131 226 LAIGLE ROLAND MV1 38 MMM 00:38:55 15,4 125
132 356 LE MENER MATHIEU MSE 68 ASVA 00:38:56 15,4 126
133 342 GALANT JEAN-MARC MSE 69 NL 00:38:57 15,4 127
134 604 FOREST SEBASTIEN MV1 39 ECG PERIGNAN 00:38:59 15,4 128
135 210 MOULIN YANNICK MSE 70 RUN & BIKE MENDE 00:39:01 15,4 129
136 6 LELUT JANA FSE 6 ALES CEVENNES ATHLETISME 00:39:04 15,4 7
137 241 SELTNER GARY MSE 71 NL 00:39:08 15,3 130
138 82 PICARD JEROME MSE 72 SCO ST MARGUERITTE 00:39:08 15,3 131
139 255 BOUREMEL SAID MV1 40 ATHLE 48 00:39:10 15,3 132
140 308 SALLECROIX FREDERIC MV2 10 TARN SUD ATHLETISME 00:39:11 15,3 133
141 231 VLAEMYNCK HERVE MV2 11 CEVENNES TRI 00:39:12 15,3 134
142 643 RIEUTORD JEAN MICHEL MV1 41 SCAC 00:39:13 15,3 135
143 722 RIEU NICOLAS MSE 73 NL 00:39:14 15,3 136
144 7 BELIN MATHILDE FES 1 ALES CEVENNES ATHLETISME 00:39:15 15,3 8
145 683 RIBOULET CEDRIC MSE 74 CAP MELGUEIL 00:39:17 15,3 137
146 340 GUIDI ALEXANDRE MSE 75 SCAC 00:39:17 15,3 138
147 439 RAYNAL LAURENT MSE 76 SCAC 00:39:17 15,3 139
148 44 MADIOU CAROLE FSE 7 MAAM 00:39:19 15,3 9
149 483 BOURREL ALAIN MV3 2 NL 00:39:20 15,2 140
150 581 BOURGUIGNON SEBASTIEN MSE 77 UNION ATHLETISME S.G 00:39:24 15,2 141
151 499 DUMAS FRANCOISE FV1 2 ALES CEVENNES ATHLETISME 00:39:25 15,2 10
152 205 BADI FARID MV1 42 NL 00:39:26 15,2 142
153 341 BRUN JEAN-LUC MV1 43 COURIR A VERGEZE 00:39:31 15,2 143
154 252 JULIEN ARNAUD MSE 78 ATHLE 48 00:39:32 15,2 144
155 130 MASSEBOEUF BERNARD MV1 44 ALES CEVENNES ATHLETISME 00:39:34 15,2 145
156 371 BERTONCINO JEAN-PHILIPPE MV2 12 ASVA 00:39:36 15,1 146
157 430 DUNAND SERGE MV2 13 SC CHATEAURENARD 00:39:36 15,1 147
158 169 DIEVAL PASCAL MV2 14 UA CARPENTRAS 00:39:39 15,1 148
159 670 CAROUMBAYE JULES MV2 15 ALAJM ST GILLES 00:39:40 15,1 149
160 20 JULIEN LAURIE FSE 8 ATHLE 48 00:39:43 15,1 11
161 501 EL BOUBARAK BRAHIM MV2 16 MARC 00:39:43 15,1 150
162 214 BOLO FLORENT MSE 79 NL 00:39:43 15,1 151
163 434 DERQUENNE OLIVIER MV1 45 SCAC 00:39:46 15,1 152
164 48 LASSOUARN PATRICIA FSE 9 ST QUENTIN EN YVELINE 00:39:48 15,1 12
165 47 DEREGNAUCOURT DAVID MSE 80 NL 00:39:51 15,1 153
166 630 LETURGIE AURELIEN MJU 4 ECG PIGNAN 00:39:52 15,0 154
167 601 SAUSTIN RAPHAEL MSE 81 NL 00:39:54 15,0 155
168 156 ROUZE PASCAL MV2 17 ACBP 00:39:55 15,0 156
169 596 CAZE OLIVIER MSE 82 CA LANGOGNE 00:39:56 15,0 157
170 438 FABRE HUGO MSE 83 NL 00:39:59 15,0 158
171 605 RIVIER AURELIEN MSE 84 NL 00:40:01 15,0 159
172 484 PASCAL GERARD MV3 3 NL 00:40:02 15,0 160
173 93 BENNASR EDDY MSE 85 MC NIMES 00:40:04 15,0 161
174 525 SIGISCAR PATRICE MV1 46 NL 00:40:06 15,0 162
175 703 MOURROS MICHEL MV2 18 ACP AGDE 00:40:08 14,9 163
176 405 VERMEERSCH PATRICK MV2 19 NL 00:40:09 14,9 164
177 528 MARIANI FRANCIS MV3 4 ACN ANDUZE 00:40:09 14,9 165
178 80 BOILEAU REMI MV2 20 COURIR A VAUVERT 00:40:10 14,9 166
179 160 BERTAUX STEPHANE MV1 47 MAAM 00:40:13 14,9 167
180 236 RAYNAUD PHILIPPE MV1 48 GANGES COURT 00:40:14 14,9 168
181 500 BEDIOUNE LAHOURIA FV1 3 ALES CEVENNES ATHLETISME 00:40:19 14,9 13
182 684 SANTAMARIA JEAN BAPTISTE MV3 5 TRIATHLON CLUB LUNEL 00:40:22 14,9 169
183 322 CAVALLARO PATRICK MSE 86 GANGES COURT 00:40:31 14,8 170
184 522 PONS LILIAN MSE 87 AMICALE RUNNING 66.COM 00:40:37 14,8 171
185 401 ALILI MALIK MV1 49 NL 00:40:37 14,8 172
186 196 CEBAN FRANK MV1 50 MAAM 00:40:41 14,7 173
187 709 ESPARCEL JEAN MV3 6 NL 00:40:43 14,7 174
188 68 BLANC JEAN-JACQUES MV1 51 FC BARBENTANE 00:40:43 14,7 175
189 95 PRICE BRUNO MV1 52 SCAC 00:40:43 14,7 176
190 69 BRES BENOIT MSE 88 FC BARBENTANE 00:40:43 14,7 177
191 257 FEVRE RODOLPH MV1 53 ATHLE 48 00:40:50 14,7 178
192 339 COIN ALEXANDRE MJU 5 NL 00:40:52 14,7 179
193 541 PELLEGRINO PHILIPPE MV1 54 ACRA ARLES 00:40:52 14,7 180
194 320 DUSSARGUES DAMIEN MSE 89 ALES CEVENNES ATHLETISME 00:40:53 14,7 181
195 298 BANCAREL MATHIEU MSE 90 NL 00:40:58 14,6 182
196 164 BEN MOUSSA OMAR MSE 91 SCAC 00:41:04 14,6 183
197 229 GREFEUILLE PASCAL MSE 92 COURIR A VERGEZE 00:41:06 14,6 184
198 216 VIALA GEOFFREY MSE 93 SCAC 00:41:07 14,6 185
199 498 UROZ JEAN MV3 7 ALES CEVENNES ATHLETISME 00:41:08 14,6 186
200 443 HUGON JACQUES MV2 21 NL 00:41:09 14,6 187
201 680 SAGNARD LAURA FJU 1 ENA 00:41:10 14,6 14
202 126 FERNANDEZ JONATHAN MCA 3 ALES CEVENNES ATHLETISME 00:41:11 14,6 188
203 456 BRESSY DIDIER MV2 22 FOULEES DE LA TAVE 00:41:12 14,6 189
204 106 GIALDINI ALEXANDRE MSE 94 ALES CEVENNES ATHLETISME 00:41:14 14,5 190
205 265 MULLER FRANCK MV1 55 ACBP 00:41:18 14,5 191
206 725 SALVADOR PEDRO ISAAC MSE 95 CA CAMPILLO 00:41:21 14,5 192
207 88 FOUDRIGNIER SYLVIE FV2 1 MAAM 00:41:22 14,5 15
208 335 GALTIER STEPHAN MSE 96 VC ALESIEN 00:41:26 14,5 193
209 219 ROZIER CHRISTIAN MV2 23 NL 00:41:27 14,5 194
210 285 FERNANDEZ SEBASTIEN MV2 24 ATHLE 66 00:41:29 14,5 195
211 538 DEVESSE ALAIN MV1 56 LGC 00:41:29 14,5 196
212 284 LIVOLSI STEPHANE MV1 57 ATHLE 66 00:41:30 14,5 197
213 51 DULON GREGORY MSE 97 DUBOIS TRANSPORT 00:41:31 14,5 198
214 433 MATHIER MICHEL MV1 58 SC CHATEAURENARD 00:41:37 14,4 199
215 185 VERNET PATRICK MV2 25 MC NIMES 00:41:38 14,4 200
216 61 MIKOLAJCZYK PATRICK MV1 59 ACN ANDUZE 00:41:38 14,4 201
217 275 CASTANO ALEXANDRE MV1 60 ACN ANDUZE 00:41:39 14,4 202
218 267 MARTIAL GILLES MV1 61 ACBP 00:41:41 14,4 203
219 348 BARRIERE PHILIPPE MV1 62 CEVENNES TRAIL CLUB 00:41:45 14,4 204
220 395 TEISSONNIERE PASCAL MV1 63 ACN ANDUZE 00:41:52 14,3 205
221 153 BENAMAR YOUNES MV1 64 NL 00:41:52 14,3 206
222 366 DEVARIEUX PIERRE MSE 98 NL 00:41:53 14,3 207
223 691 OULLADI MOHAMED MV1 65 MC NIMES 00:41:57 14,3 208
224 632 UREDOWSKI MICHEL MV2 26 NL 00:42:00 14,3 209
225 523 RIVIERE CAMILLE FSE 10 AMICALE RUNNING 66.COM 00:42:02 14,3 16
226 571 FADDA LAURENT MV1 66 NL 00:42:04 14,3 210
227 118 ANSELME ERIC MV1 67 ALES CEVENNES ATHLETISME 00:42:10 14,2 211
228 627 LUCAS VALERIE FSE 11 ATHLE 48 00:42:11 14,2 17
229 294 CENDRA TONY MV2 27 ATHLE 48 00:42:17 14,2 212
230 552 CUSSOT SYLVAINE FSE 12 CA BALMA 00:42:20 14,2 18
231 717 SOLER JEAN PIERRE MSE 99 NL 00:42:27 14,1 213
232 72 BRAUT STEPHANE MES 6 COURIR A VERGEZE 00:42:29 14,1 214
233 283 SAHRAOUI WILLIAM MV1 68 NL 00:42:30 14,1 215
234 406 VERMEERSCH ANAELLE FSE 13 NL 00:42:33 14,1 19
235 672 FABIE MATHIEU MSE 100 NL 00:42:41 14,1 216
236 361 VANDOORSSELAERE JEAN-JACQUES MV1 69 MMM 00:42:43 14,0 217
237 325 VIDAL LUC MV1 70 ALES CEVENNES ATHLETISME 00:42:43 14,0 218
238 677 LEMARIÉ STEVEN MSE 101 NL 00:42:48 14,0 219
239 636 SALINAS LUCIEN MV3 8 ALES CEVENNES ATHLETISME 00:42:49 14,0 220
240 183 THOMELIN FABRICE MSE 102 NL 00:42:53 14,0 221
241 85 GAMBA CHRISTIAN MV2 28 ACN ANDUZE 00:42:53 14,0 222
242 656 DARU CATHY FV2 2 MAAM 00:42:57 14,0 20
243 377 MALARTRE JONATHAN MSE 103 NL 00:42:58 14,0 223
244 60 DALVERNY FLORENT MES 7 KRONOS TRI 00:42:59 14,0 224
245 486 CHARAVEL HERVE MV2 29 NL 00:43:00 14,0 225
246 623 BASTIEN GUILLAUME MSE 104 NL 00:43:06 13,9 226
247 281 SEGURA DAMIAN MV1 71 NL 00:43:06 13,9 227
248 566 GIRARD ANTHONY MES 8 NL 00:43:06 13,9 228
249 701 CADRAN PATRICE MV3 9 ATHLETIC CLUB DES PAYS D AGDE 00:43:08 13,9 229
250 572 CUGINI WALTER MV2 30 ASSP VERGEZE 00:43:09 13,9 230
251 107 JULLIE-LAURENT CLEMENT MJU 6 ALES CEVENNES ATHLETISME 00:43:09 13,9 231
252 122 GIBELIN DENIS MV2 31 ALES CEVENNES ATHLETISME 00:43:11 13,9 232
253 414 CHAMBON THOMAS MCA 4 ST MAMERT DU GARD 00:43:13 13,9 233
254 307 MARTIN BRICE MSE 105 AVIA CLUB ISSYLES MOULINEAUX 00:43:14 13,9 234
255 719 RAGIMBEAU JULIEN MSE 106 NL 00:43:15 13,9 235
256 304 LE MOUEL MARIA FV1 4 ASVBC SORGUES 00:43:15 13,9 21
257 494 COMPTE AURELIE FSE 14 AS ROMAGNAT 00:43:15 13,9 22
258 290 MANCA BRUNO MV1 72 CLAS 00:43:24 13,8 236
259 87 REVERSAT GILLES MV2 32 ALAJM ST GILLES 00:43:24 13,8 237
260 470 CARDON FABRICE MV1 73 ALAJM ST GILLES 00:43:25 13,8 238
261 587 CLAUZEL CHRISTOPHE MV1 74 NL 00:43:28 13,8 239
262 83 HIGONNET PATRICK MV2 33 ALAJM ST GILLES 00:43:28 13,8 240
263 312 BRAJON THIERRY MV1 75 LGC 00:43:28 13,8 241
264 55 LAIGLE JEAN-LUC MV1 76 MMM 00:43:29 13,8 242
265 450 BRIFFAUD SEBASTIEN MSE 107 NL 00:43:31 13,8 243
266 319 DELEUZE LOIC MSE 108 ALES CEVENNES ATHLETISME 00:43:31 13,8 244
267 14 MONTES CATHY FV2 3 ALES CEVENNES ATHLETISME 00:43:32 13,8 23
268 669 GILLY FABIEN MSE 109 NL 00:43:32 13,8 245
269 625 BERTIN PIERRE MCA 5 NL 00:43:33 13,8 246
270 413 BALEZ CEDRIC MSE 110 CEVENNES ENDURANCE 00:43:34 13,8 247
271 141 MEMBRAT XAVIER MV1 77 ALES CEVENNES ATHLETISME 00:43:37 13,8 248
272 568 BERGERON MICKAEL MJU 7 ASSP VERGEZE 00:43:38 13,7 249
273 243 PUEL SYLVIE FV1 5 NL 00:43:39 13,7 24
274 508 THOULOUZE LUDOVIC MV1 78 SNR CEVENNES 00:43:40 13,7 250
275 718 ROUSSEL STEPHAN MSE 111 NL 00:43:41 13,7 251
276 249 RAYNAL PERRINE FSE 15 ATHLE 48 00:43:43 13,7 25
277 253 CHAPDANIEL ERIC MV1 79 ATHLE 48 00:43:43 13,7 252
278 409 BENOIT PHILIPPE MV1 80 NL 00:43:44 13,7 253
279 347 BARRIERE FRANCOISE FV1 6 CEVENNES TRAIL CLUB 00:43:44 13,7 26
280 212 DAURIEUX RONAN MSE 112 NL 00:43:51 13,7 254
281 425 OSELLA CHRISTOPHE MV1 81 SC CHATEAURENARD 00:43:54 13,7 255
282 182 SOLER JEAN-LUC MV2 34 NL 00:43:58 13,6 256
283 444 FONTANE LAURENT MV1 82 ACN ANDUZE 00:43:59 13,6 257
284 84 HIGONNET NICOLE FV2 4 ALAJM ST GILLES 00:44:03 13,6 27
285 239 CABRERA SALVATORE MV1 83 ALAJM ST GILLES 00:44:04 13,6 258
286 192 AIGOIN CHRISTEL MV1 84 ACN ANDUZE 00:44:08 13,6 259
287 207 GARCON MATHIAS MSE 113 MC NIMES 00:44:09 13,6 260
288 619 CORTES REMY MSE 114 NL 00:44:14 13,6 261
289 635 CHAMBOREDON FABRICE MV1 85 NL 00:44:15 13,6 262
290 56 BONO CLAUDE MV3 10 ESPERANCE DE FAVERGES 00:44:18 13,5 263
291 351 DHELIE CHRISTOPHE MV1 86 NL 00:44:19 13,5 264
292 516 TURCHET GUY MV2 35 ASO ISTRES 00:44:21 13,5 265
293 651 HUGON YOAN MSE 115 NL 00:44:22 13,5 266
294 715 NOBLE JEAN LOUIS MV1 87 NL 00:44:23 13,5 267
295 221 BARROT PATRICK MV2 36 NL 00:44:34 13,5 268
296 510 LELAVEAU SEBASTIEN MSE 116 ASSP VERGEZE 00:44:37 13,4 269
297 641 AIT AHMED MAGID MV2 37 ALES CEVENNES ATHLETISME 00:44:38 13,4 270
298 140 BIANCHIN ENNIO MV3 11 ALES CEVENNES ATHLETISME 00:44:46 13,4 271
299 668 FERRER RICHARD MSE 117 NL 00:44:49 13,4 272
300 134 MAGNE JEAN-LUC MSE 118 VEDAS ENDURANCE 00:44:50 13,4 273
301 675 RANQUET JEAN LUC MV2 38 MC NIMES 00:44:51 13,4 274
302 237 ANDRE NICOLAS MSE 119 NL 00:44:54 13,4 275
303 599 PROUVEUR STEPHANE MV1 88 NL 00:44:57 13,3 276
304 507 PIGNANELLI SYLVAIN MV1 89 NL 00:44:58 13,3 277
305 392 BARET JEAN-PAUL MV2 39 ALES CEVENNES ATHLETISME 00:44:59 13,3 278
306 201 CUCCHI HERVE MV2 40 NL 00:44:59 13,3 279
307 393 VIDAL PHILIPPE MV1 90 NL 00:44:59 13,3 280
308 78 LAUTRU GERALDINE FV1 7 BCAM 00:45:00 13,3 28
309 634 CAUSSE CHRISTOPHE MV1 91 NL 00:45:01 13,3 281
310 151 BOUISSEREN CHRISTOPHE MV1 92 NL 00:45:01 13,3 282
311 259 MULLER FLORENCE FV1 8 ACBP 00:45:02 13,3 29
312 435 LE SAINT STEPHANE MV1 93 NL 00:45:06 13,3 283
313 372 FLANDIN MAXIME MSE 120 NL 00:45:08 13,3 284
314 251 LEFEVRE CATHY FV1 9 ATHLE 48 00:45:12 13,3 30
315 297 CODOU MARIE FV2 5 MAAM 00:45:15 13,3 31
316 138 MALHAUTIER JEAN-CLAUDE MV3 12 ALES CEVENNES ATHLETISME 00:45:20 13,2 285
317 458 VIGNAL JOSIAN MV2 41 ASSP VERGEZE 00:45:22 13,2 286
318 606 NUZZO SERGE MV2 42 HYERES RUNNING 00:45:24 13,2 287
319 629 KLUBA JACQUES MV1 94 LGC 00:45:24 13,2 288
320 408 LEMIERE SEBASTIEN MSE 121 NL 00:45:25 13,2 289
321 63 NICOLAS ALAIN MV1 95 NL 00:45:27 13,2 290
322 485 ESCLAINE BERNARD MV2 43 ASSP VERGEZE 00:45:27 13,2 291
323 389 MISON NATHALIE FV1 10 FC BARBENTANE 00:45:30 13,2 32
324 453 CORBIER CHRISTOPHE MV1 96 NL 00:45:31 13,2 292
325 474 KEIREL BERTRAND MSE 122 NL 00:45:32 13,2 293
326 191 POLSINELLI HERVE MV2 44 EARP 00:45:33 13,2 294
327 477 GARIN THIBAULT MSE 123 NL 00:45:38 13,1 295
328 383 CORBIER FABIEN MV1 97 NL 00:45:42 13,1 296
329 53 VIOLET LAURENT MV1 98 NL 00:45:43 13,1 297
330 111 BOURGEOIS CHARLENE FSE 16 ALES CEVENNES ATHLETISME 00:45:44 13,1 33
331 540 DELHAL BRUNO MV1 99 ASSP VERGEZE 00:45:45 13,1 298
332 362 VIOLO STEPHAN MSE 124 SCAC 00:45:49 13,1 299
333 666 DUGAS YVES MV3 13 CORCY ENDURANCE 00:45:53 13,1 300
334 178 GUERIN DIIDER MV2 45 NL 00:45:57 13,1 301
335 117 FELGEIROLLES REMY MV2 46 ALES CEVENNES ATHLETISME 00:45:58 13,0 302
336 711 BATAILLE MAXIME MSE 125 NL 00:45:59 13,0 303
337 578 LARGUIER LAURENT MSE 126 TRIATHLON NIMES 00:46:01 13,0 304
338 129 PUGNIERE MARC MV3 14 ALES CEVENNES ATHLETISME 00:46:01 13,0 305
339 334 TEISSONNIERE JEAN-DENIS MV2 47 ACN ANDUZE 00:46:02 13,0 306
340 402 LAVIGNE JOEL MV3 15 ALES CEVENNES ATHLETISME 00:46:06 13,0 307
341 442 BRUNOX MARVIN MCA 6 NL 00:46:12 13,0 308
342 671 BONVALET GUNTHER MSE 127 MC NIMES 00:46:15 13,0 309
343 54 CAUSSE CAMILLE MV1 100 NL 00:46:18 13,0 310
344 534 SANCHEZ THIERRY MV1 101 NL 00:46:24 12,9 311
345 262 BECOUZE STEPHANIE FSE 17 ACBP 00:46:30 12,9 34
346 546 GAUCI CHRISTIAN MV2 48 NL 00:46:30 12,9 312
347 524 PIALOT LUC MV2 49 SKI CLUB MT AIGOUAL 00:46:32 12,9 313
348 367 AUBERT STEPHANE MSE 128 NL 00:46:33 12,9 314
349 333 COIN JEAN-MARC MV1 102 NL 00:46:34 12,9 315
350 545 PEYRE MARC MV4 1 NL 00:46:35 12,9 316
351 146 DEMARTY RONAN MSE 129 NL 00:46:40 12,9 317
352 240 DEILHES ALAIN MV1 103 NL 00:46:45 12,8 318
353 452 MARTIN DANIEL MV1 104 NL 00:46:46 12,8 319
354 94 MENA MICHEL MV3 16 BIPEDE DE LA VAUNAGE 00:46:48 12,8 320
355 175 MULOT JOSIANE FV2 6 MC NIMES 00:46:49 12,8 35
356 380 GUILLOT CAROLINE FSE 18 NL 00:46:51 12,8 36
357 299 GEIGER SANDRINE FSE 19 SC CHATEAURENARD 00:46:53 12,8 37
358 427 SIERRA JONATHAN MV2 50 ACN ANDUZE 00:46:55 12,8 321
359 232 CASTELL DOMINIQUE FV1 11 SCAC 00:46:56 12,8 38
360 235 FLAMAND CHRISTIAN MV1 105 MC NIMES 00:46:57 12,8 322
361 155 ROUZE LUDOVIC MSE 130 ACBP 00:46:59 12,8 323
362 502 ROLAND DELPHINE FV1 12 ALES CEVENNES ATHLETISME 00:46:59 12,8 39
363 584 LAVAURE CHRISTOPHE MV1 106 CLAS 00:47:03 12,8 324
364 489 CAUSSE NATHALIE FSE 20 ACN ANDUZE 00:47:09 12,7 40
365 309 MASSONNIERE JEAN-PIERRE MV3 17 ACN ANDUZE 00:47:09 12,7 325
366 373 BASTIDE ALEXANDRE MSE 131 NL 00:47:10 12,7 326
367 557 MAURIN NICOLAS MSE 132 NL 00:47:12 12,7 327
368 394 CRASSOUS JEAN MV2 51 ALES CEVENNES ATHLETISME 00:47:13 12,7 328
369 415 CHAMBON PHILIPPE MV1 107 ST MAMERT DU GARD 00:47:17 12,7 329
370 418 PELLETIER MARC MV1 108 CEF MARATHONIEN 00:47:22 12,7 330
371 407 SEIGNOUR DIIDER MV1 109 LGC 00:47:23 12,7 331
372 357 GRANDON JEAN-MICHEL MV1 110 ACN ANDUZE 00:47:23 12,7 332
373 553 BES STEPHANIE FSE 21 FC BARBENTANE 00:47:26 12,6 41
374 170 GINESTOUX MARC MV2 52 SCL 00:47:27 12,6 333
375 624 CLARTÉ JEAN MARC MV3 18 NL 00:47:27 12,6 334
376 317 MUSGROVE ERIC MV3 19 NL 00:47:30 12,6 335
377 280 JEANJEAN VINCENT MJU 8 NL 00:47:32 12,6 336
378 468 RASMUS PASCAL MV1 111 NL 00:47:34 12,6 337
379 446 MONTANER ANTHONY MES 9 NL 00:47:37 12,6 338
380 562 LIBOUREL JEAN LUC MV1 112 NL 00:47:38 12,6 339
381 685 BIZET BRUNO MV1 113 MMM 00:47:40 12,6 340
382 423 RAYNIER-ZAPATA MARIE FSE 22 NL 00:47:41 12,6 42
383 66 METRALS PHILIPPE MV1 114 NL 00:47:42 12,6 341
384 86 MOREAUX ARNAUD MSE 133 NL 00:47:44 12,6 342
385 639 ALEMU-MONNIER BELLAY FV2 7 ALES CEVENNES ATHLETISME 00:47:45 12,6 43
386 148 CURAUDEAU LAURENT MV1 115 NL 00:47:46 12,6 343
387 375 GUILLOU-KEREDAN CLAIRE FV1 13 ACN ANDUZE 00:47:46 12,6 44
388 529 ORTIZ JEAN-PIERRE MV2 53 NL 00:47:47 12,6 344
389 363 CASTELLVI JEAN-MARIE MV2 54 MC NIMES 00:47:50 12,5 345
390 337 PANAFIEU JEAN-LUC MV3 20 MC NIMES 00:47:51 12,5 346
391 583 HERCULE SAMUEL MSE 134 NL 00:47:53 12,5 347
392 154 COMPTIER GERALD MSE 135 COURIR A VAUVERT 00:47:57 12,5 348
393 421 HERMET DAMIEN MSE 136 ACN ANDUZE 00:47:59 12,5 349
394 260 MARTIAL BRIGITTE FV1 14 ACBP 00:48:01 12,5 45
395 330 RUSCASSIER SEBASTIEN MSE 137 NL 00:48:03 12,5 350
396 131 CALDESAIGUES MAGALIE FSE 23 ALES CEVENNES ATHLETISME 00:48:04 12,5 46
397 152 COUDERO ARNAUD MSE 138 NL 00:48:10 12,5 351
398 424 BANDINI MELINDA FSE 24 SC CHATEAURENARD 00:48:12 12,4 47
399 721 COLOMBIER YAN MV1 116 NL 00:48:12 12,4 352
400 378 TESTUD DAVID MV1 117 ALES CEVENNES ATHLETISME 00:48:14 12,4 353
401 331 MAURO MARTIAL MV2 55 COURIR A SAUSSET 00:48:15 12,4 354
402 313 SIMONIN CELINE FSE 25 ATSCAF ST VICTORET 00:48:16 12,4 48
403 264 AGOSTO BRUNO MV1 118 ACBP 00:48:24 12,4 355
404 400 BOURGET OLIVIER MSE 139 NL 00:48:26 12,4 356
405 180 NAVARRO ROBIN MSE 140 ASSP VERGEZE 00:48:28 12,4 357
406 316 MALAFOSSE THIERRY MV1 119 NL 00:48:29 12,4 358
407 547 OLLIER AGNES FV1 15 ACRA ARLES 00:48:37 12,3 49
408 531 HATAT DANIEL MV3 21 FSGT 00:48:38 12,3 359
409 52 CHABERT BRUNO MV1 120 NL 00:48:41 12,3 360
410 388 DEVIDE FRANCK MV1 121 FC BARBENTANE 00:48:45 12,3 361
411 403 BAURES MALIKA FV1 16 COURIR A VAUVERT 00:48:45 12,3 50
412 712 CAVALIER LAURENT MSE 141 NL 00:48:48 12,3 362
413 436 ALONSO DANIEL MV3 22 CLAS 00:48:50 12,3 363
414 189 DELPECH NELLY FV2 8 SC ARLES 00:48:55 12,3 51
415 640 ROUSSET LAURENT MV1 122 NL 00:48:58 12,3 364
416 324 BORDRON MONIQUE FV2 9 ALES CEVENNES ATHLETISME 00:49:00 12,2 52
417 278 TANGHE JEAN-PHILIPPE MV1 123 MC NIMES 00:49:01 12,2 365
418 311 BARNOUIN LAURENT MV1 124 NL 00:49:02 12,2 366
419 222 GRANAT ERIC MV2 56 PRIVAT RVR 00:49:02 12,2 367
420 149 LABERTRANDE PAUL MV3 23 SC ARLES 00:49:05 12,2 368
421 328 JANAS MARJORIE FV1 17 NL 00:49:09 12,2 53
422 327 GARROUCHE SALIM MSE 142 NL 00:49:10 12,2 369
423 233 MORENO JOSE MV1 125 SCAC 00:49:14 12,2 370
424 376 GARCIA SIMON MSE 143 NL 00:49:15 12,2 371
425 615 DUCROS OLIVIER MSE 144 TRIATHLON NIMES 00:49:20 12,2 372
426 354 DALLE FREDERIC MV1 126 NL 00:49:25 12,1 373
427 570 GENEVE WILLY MSE 145 ACBP 00:49:30 12,1 374
428 176 GUERIN LEA FES 2 NL 00:49:32 12,1 54
429 209 CHAMPEYMONT FRANCK MSE 146 NL 00:49:38 12,1 375
430 208 CHAMPEYMONT MYLENE FSE 26 NL 00:49:38 12,1 55
431 190 FERRERO DENIS MV2 57 NL 00:49:41 12,1 376
432 132 DELANNOY BERNADETTE FV3 1 ALES CEVENNES ATHLETISME 00:49:42 12,1 56
433 220 BERNARD JEAN-MICHEL MV2 58 NL 00:49:42 12,1 377
434 74 PUYET EMMANUELLE FSE 27 LIBERTY GYM 00:49:43 12,1 57
435 75 HERICHE PHILIPPE MV1 127 LIBERTY GYM 00:49:44 12,1 378
436 536 DUROC LAURENT MSE 147 NL 00:49:44 12,1 379
437 194 WOUAQUET LAURE FSE 28 NL 00:49:47 12,1 58
438 420 DECOBERT ARMEL MSE 148 NL 00:50:07 12,0 380
439 460 BUISSON NICOLAS MJU 9 NL 00:50:09 12,0 381
440 548 SACHERS GWLADYS FSE 29 NL 00:50:13 11,9 59
441 426 ALCALDE DENIS MV4 2 ACN ANDUZE 00:50:13 11,9 382
442 535 TRICARICO LAURENT MV1 128 GANGES COURT 00:50:17 11,9 383
443 217 PINA PATRICIA FV1 18 NL 00:50:20 11,9 60
444 70 MEYER DOMINIQUE MV2 59 MMM 00:50:22 11,9 384
445 346 CARRASCOSA MICHEL MV1 129 MMM 00:50:26 11,9 385
446 305 SOMLETTE MARIE-PASCALE FV1 19 NL 00:50:26 11,9 61
447 457 BARDI CHRISTINE FV1 20 ASSP VERGEZE 00:50:27 11,9 62
448 565 ANDERLUZZI MARION FSE 30 NL 00:50:28 11,9 63
449 202 CABANERO BRUNO MV2 60 NL 00:50:29 11,9 386
450 274 MORINIERE MICHEL MV2 61 BMA 00:50:29 11,9 387
451 652 MEDDA BRUNO MV2 62 TOUNEFEUILLE 00:50:33 11,9 388
452 688 TARDIEU GUILLAUME MSE 149 NL 00:50:42 11,8 389
453 124 CASTELLI MARIO MSE 150 ALES CEVENNES ATHLETISME 00:50:44 11,8 390
454 686 TAHIRI SAMIR MSE 151 NL 00:50:47 11,8 391
455 428 BORTONE AGUSTIN MSE 152 NL 00:50:49 11,8 392
456 223 JONQUET THIERRY MV1 130 NL 00:50:50 11,8 393
457 620 JOLY GUY MV1 131 CROCCO D'AIRIN 00:50:51 11,8 394
458 454 BAZIN GUILLAUME MSE 153 NL 00:50:54 11,8 395
459 203 CABANERO MARIE-PIERRE FV1 21 NL 00:50:56 11,8 64
460 358 GRANDON SOPHIE FV1 22 NL 00:50:57 11,8 65
461 133 BAGNOL DELPHINE FSE 31 ALES CEVENNES ATHLETISME 00:50:59 11,8 66
462 582 SMADI HYA FSE 32 PIERREFITTE MULTI ATHLE 00:51:00 11,8 67
463 263 ARSAC CATHY FV1 23 ACBP 00:51:01 11,8 68
464 326 HILLAIRE RICHARD MV2 63 ALES CEVENNES ATHLETISME 00:51:03 11,8 396
465 660 PY MIREILLE FV3 2 MAAM 00:51:06 11,7 69
466 370 BERTONCINO CHANTAL FV1 24 ASVA 00:51:09 11,7 70
467 147 DELANZY ERIC MSE 154 MIDI LIBRE ALES 00:51:10 11,7 397
468 139 BOURGEOIS JEAN-PAUL MV2 64 ALES CEVENNES ATHLETISME 00:51:11 11,7 398
469 559 DALVERNY FABIEN MCA 7 UZAC 00:51:15 11,7 399
470 514 BOMPAS JEROME MV1 132 NL 00:51:17 11,7 400
471 586 CALABRO NICOLAS MSE 155 NL 00:51:17 11,7 401
472 727 GRASSET BORIS MSE 156 NL 00:51:18 11,7 402
473 726 ROBERT FRANCK MV1 133 ASML DE GARONS 00:51:19 11,7 403
474 120 BOUTALEB SAMEHRA FV1 25 ALES CEVENNES ATHLETISME 00:51:27 11,7 71
475 261 GERMAIN CLAUDINE FV1 26 ACBP 00:51:32 11,6 72
476 600 RODRIGUEZ JEAN-CLAUDE MV2 65 MMM 00:51:35 11,6 404
477 355 ROMANG ELISE FSE 33 ASVA 00:51:39 11,6 73
478 159 JOSEPH JEROME MSE 157 NL 00:51:41 11,6 405
479 62 CAZETTE MARC MV2 66 NL 00:51:41 11,6 406
480 622 ALBARIC SEBASTIEN MSE 158 LGC 00:51:43 11,6 407
481 168 ARNOUX MARION FES 3 ALES TRIATHLON 00:51:50 11,6 74
482 554 GALLIANO GILBERT MV2 67 NL 00:51:55 11,6 408
483 467 BROUAT GERARD MV2 68 NL 00:52:05 11,5 409
484 603 MASCLEF SERGE MV1 134 CLAS 00:52:07 11,5 410
485 549 BADACHAOUI JENNIFER FSE 34 NL 00:52:14 11,5 75
486 422 COHEN MAURICE MV2 69 NL 00:52:23 11,5 411
487 306 KEIFLIN PIERRE MV2 70 NL 00:52:23 11,5 412
488 644 MARTIN BEATRICE FV1 27 LGC 00:52:25 11,4 76
489 79 BOILEAU PATRICIA FV2 10 COURIR A VAUVERT 00:52:25 11,4 77
490 689 PERROUX CHRISTOPHE MSE 159 SALINDRES 00:52:26 11,4 413
491 693 BONEL JEREMY MSE 160 NL 00:52:34 11,4 414
492 602 MASCLEF STEPHANIE FSE 35 CLAS 00:52:35 11,4 78
493 204 MICHON OLIVIER MV2 71 NL 00:52:35 11,4 415
494 198 MONTEIL ANTOINE MES 10 NL 00:52:37 11,4 416
495 459 CANONGE TANGUY MES 11 NL 00:52:37 11,4 417
496 410 SAUZE JEAN-LUC MV1 135 SNR CEVENNES 00:52:39 11,4 418
497 195 GUERIN CLEMENT MSE 161 NL 00:52:41 11,4 419
498 374 GUILLOU-KEREDAN LAURENT MV1 136 NL 00:52:42 11,4 420
499 716 COLOMBET DANIEL MV2 72 CROCO D'AIRAIN TRIATHLON 00:52:44 11,4 421
500 449 AMARGIER DIDIER MV1 137 NL 00:52:45 11,4 422
501 451 RUIZ MANUEL MSE 162 NL 00:52:49 11,4 423
502 218 AMOUROUX RICHARD MV2 73 NL 00:52:51 11,4 424
503 145 GELY CHRISTINE FV1 28 NL 00:52:52 11,3 79
504 91 BARRE EVELYNE FV2 11 NL 00:52:54 11,3 80
505 379 VEDEL AUDREY FSE 36 ALES CEVENNES ATHLETISME 00:53:00 11,3 81
506 610 PATOUT DIDIER MSE 163 VETERANS ST HILAIRE 00:53:03 11,3 425
507 381 VIDAL HELENE FSE 37 NL 00:53:04 11,3 82
508 59 FRAPPER VIVIANE FV3 3 MAAM 00:53:07 11,3 83
509 526 MONTAGARD EMMANUELLE FV1 29 NL 00:53:07 11,3 84
510 543 LETULLE CHRISTELLE FSE 38 COURIR A VAUVERT 00:53:08 11,3 85
511 199 MONPERT LAURENT MV1 138 NL 00:53:12 11,3 426
512 384 VIVARD SYLVIE FV1 30 MC NIMES 00:53:16 11,3 86
513 332 FANGIER PATRICK MV2 74 NL 00:53:17 11,3 427
514 555 GALLIANO FLORENCE FV1 31 NL 00:53:26 11,2 87
515 119 MEMBRAT SANDRINE FV1 32 ALES CEVENNES ATHLETISME 00:53:26 11,2 88
516 466 BROUAT LAURENT MV1 139 NL 00:53:27 11,2 428
517 250 MOULIN JEAN-CLAUDE MV3 24 ATHLE 48 00:53:28 11,2 429
518 462 DEPLAGNE PATRICK MV2 75 NL 00:53:28 11,2 430
519 292 GAUTHIER THIERRY MV1 140 NL 00:53:30 11,2 431
520 65 ALLARD THIERRY MSE 164 NL 00:53:33 11,2 432
521 64 INGUIMBERT JEROME MSE 165 NL 00:53:33 11,2 433
522 667 CROS CHANTAL FSE 39 NL 00:53:35 11,2 89
523 184 LAMESTA ISABELLE FV2 12 MC NIMES 00:53:35 11,2 90
524 417 MAURIN PASCAL MV1 141 KINE COURSE 00:53:36 11,2 434
525 556 VENDEN JEAN MV4 3 NL 00:53:43 11,2 435
526 150 SERRON JEAN-PIERRE MV2 76 LIBERTY GYM 00:53:44 11,2 436
527 230 VLAEMYNCK CAROLE FV2 13 CEVENNES TRI 00:53:49 11,1 91
528 272 TAVERNER PATRICIA FV1 33 NL 00:53:49 11,1 92
529 67 ARTIAGA MARTINE FV2 14 SANOFI 00:53:50 11,1 93
530 448 MONTANER FRANCIS MV1 142 NL 00:53:52 11,1 437
531 708 PAULSEN FLEURISE FSE 40 NL 00:53:57 11,1 94
532 509 GUIN CHRISTINE FV2 15 BMA 00:53:57 11,1 95
533 104 OUDDANE SALIMA FES 4 ALES CEVENNES ATHLETISME 00:53:59 11,1 96
534 530 MILLOT CHANTAL FV2 16 NL 00:53:59 11,1 97
535 730 PHILIPP NICOLAS MSE 166 NL 00:53:59 11,1 438
536 172 GINESTOUX BLANDINE FCA 1 SCL 00:54:00 11,1 98
537 142 MICHEL LAURENT MV1 143 ALES CEVENNES ATHLETISME 00:54:11 11,1 439
538 98 COUGOULAINE CHRISTINE FV1 34 ALES CEVENNES ATHLETISME 00:54:11 11,1 99
539 673 MERCIER MANUEL MSE 167 NL 00:54:12 11,1 440
540 626 PUECH SERGE MV2 77 SCAC 00:54:12 11,1 441
541 511 PEYRIC CHRISTIAN MV1 144 ALES CEVENNES ATHLETISME 00:54:15 11,1 442
542 179 GIOVANELLI VANESSA FSE 41 NL 00:54:17 11,1 100
543 649 MASMEJEAN THIERRY MV1 145 NL 00:54:18 11,0 443
544 650 EDMOND BRUNO MV1 146 CROCO D'AIRAIN 00:54:19 11,0 444
545 76 MALAVELLE WILLIAM MV1 147 NL 00:54:21 11,0 445
546 225 LAIGLE NATHALIE FV1 35 MMM 00:54:22 11,0 101
547 614 CARNER JEAN CHRISTOPHE MSE 168 NL 00:54:23 11,0 446
548 181 QUINSAC ALEXANDRE MSE 169 NL 00:54:25 11,0 447
549 429 OTAZAGHINE BELKACEM MSE 170 NL 00:54:30 11,0 448
550 228 CHRISTIN ELIANE FSE 42 NL 00:54:35 11,0 102
551 224 GRANAT MURIEL FV2 17 PRIVAT RVR 00:54:36 11,0 103
552 258 OBLETTE ISABELLE FV1 36 ACBP 00:54:37 11,0 104
553 645 MARTIN THIBAULT MJU 10 LGC 00:54:40 11,0 449
554 646 MARTIN JEAN MV1 148 LGC 00:54:41 11,0 450
555 461 POULHON JULIEN MV3 25 NL 00:54:43 11,0 451
556 441 VAHABI HOSSEIN MSE 171 NL 00:54:53 10,9 452
557 242 EUZIERE AURELIE FV1 37 MC NIMES 00:55:02 10,9 105
558 496 POYATOS BERNARD MV2 78 NL 00:55:03 10,9 453
559 513 BOUCHERS HUGUETTE FV2 18 STADE OLYMPIQUE ARLESIEN 00:55:07 10,9 106
560 731 TOTH PATRICK MV3 26 MC NIMES 00:55:10 10,9 454
561 387 BEZOTEAUX CEDRIC MSE 172 NL 00:55:26 10,8 455
562 724 GARLIVA JEAN RAYMOND MV3 27 NL 00:55:32 10,8 456
563 344 PERTOLDI JEAN-MARC MV2 79 NL 00:55:36 10,8 457
564 631 ALCOVÉRÉ SAO FV1 38 ALES CEVENNES ATHLETISME 00:55:38 10,8 107
565 678 CRESPON CHRISTOPHE MSE 173 NL 00:55:39 10,8 458
566 350 MESSINES THIERRY MV1 149 NL 00:55:46 10,8 459
567 293 GAUTHIER SONIA FV1 39 NL 00:55:48 10,7 108
568 560 FISCHER LAURE FSE 43 DUATHLON BELLEGARDE 00:55:55 10,7 109
569 561 OLLIVERO BENJAMIN MSE 174 DUATHLON BELLEGARDE 00:55:56 10,7 460
570 364 JONQUET LISYA FV2 19 MC NIMES 00:55:58 10,7 110
571 188 HAUTIER ISABELLE FV1 40 SC ARLES 00:56:03 10,7 111
572 654 BATAILLER JEREMY MSE 175 NL 00:56:04 10,7 461
573 382 FAIVRE-PUJOLAS CHANTAL FV1 41 NL 00:56:06 10,7 112
574 349 RIBOT YVES MV4 4 NL 00:56:10 10,7 462
575 289 SOULAS GEORGES MV4 5 ALES CEVENNES ATHLETISME 00:56:10 10,7 463
576 187 HAUTIER DANIEL MV3 28 SC ARLES 00:56:13 10,7 464
577 186 BEAUMELLE JEAN-PAUL MV2 80 SC ARLES 00:56:13 10,7 465
578 558 MEIER SABINE FV1 42 NL 00:56:28 10,6 113
579 585 SANCHEZ JEAN BERNARD MSE 176 NL 00:56:38 10,6 466
580 497 JEAN EMMANUELLE FSE 44 NL 00:56:43 10,6 114
581 550 BESSE DAVID MV1 150 ASSP VERGEZE 00:56:52 10,6 467
582 73 VALLEE CAMILLE FJU 2 LIBERTY GYM 00:56:58 10,5 115
583 318 VALENTINE SARAH FV2 20 NL 00:56:58 10,5 116
584 728 CHABROL GREGORY MSE 177 NL 00:57:30 10,4 468
585 369 ACHARD PATRICK MV2 81 MC NIMES 00:57:31 10,4 469
586 592 HUGON LAURE FV1 43 NL 00:57:34 10,4 117
587 301 BERDOLL LOUIS MV3 29 ACN ANDUZE 00:57:35 10,4 470
588 647 MARTIN EMILIE FSE 45 LGC 00:58:27 10,3 118
589 612 BASTIDE MICHEL MV3 30 NL 00:58:29 10,3 471
590 544 LEBAULT LAURENCE FV2 21 MC NIMES 00:58:46 10,2 119
591 637 DEIROLLE STEPHANIE FSE 46 ACN ANDUZE 00:59:03 10,2 120
592 638 REYNES FRANCOIS MV3 31 ACN ANDUZE 00:59:03 10,2 472
593 463 ROLAND CHRISTOPHE MV1 151 ACN ANDUZE 00:59:15 10,1 473
594 391 BARET MARIE FSE 47 ALES CEVENNES ATHLETISME 00:59:18 10,1 121
595 81 GARCIA CORINNE FV1 44 COURIR A VAUVERT 00:59:22 10,1 122
596 655 BATAILLER THIERRY MV2 82 NL 00:59:29 10,1 474
597 440 CONCHA-LOZANO NICOLAS MSE 178 NL 00:59:36 10,1 475
598 723 COUNOYE DANIELLE FV1 45 NL 00:59:43 10,0 123
599 390 BARET EVELYNE FV2 22 ALES CEVENNES ATHLETISME 00:59:49 10,0 124
600 163 TARDIEU NICOLAS MSE 179 NL 00:59:49 10,0 476
601 279 PALADAN MONIQUE FV1 46 MC NIMES 01:00:13 10,0 125
602 245 VIAL ISABELLE FV1 47 ALES CEVENNES ATHLETISME 01:00:20 9,9 126
603 143 MIKALEFF SEVERINE FSE 48 NL 01:00:24 9,9 127
604 729 MOSIER MICHELLE FSE 49 NL 01:00:24 9,9 128
605 674 RANQUET SYLVIE FV1 48 MC NIMES 01:00:24 9,9 129
606 505 AUCLAIN SABINE FV1 49 NL 01:00:28 9,9 130
607 490 SLOUTIER JEAN-MARC MV3 32 NL 01:00:35 9,9 477
608 616 D'HARBOULLE JACQUES MV3 33 CEAB 01:00:36 9,9 478
609 385 DURAND CORINNE FV1 50 ACN ANDUZE 01:00:37 9,9 131
610 256 BOUDET PIERRE MV3 34 ATHLE 48 01:00:43 9,9 479
611 227 CHRISTIN BEATRICE FV2 23 NL 01:00:46 9,9 132
612 473 CARLE CHRISTINE FV1 51 NL 01:00:54 9,9 133
613 472 PUJALTE DIDIER MV1 152 NL 01:00:54 9,9 480
614 611 SUGIER BERNARD MV1 153 VETERANS ST HILAIRE 01:00:57 9,8 481
615 628 ROCHE CATHY FSE 50 NL 01:01:01 9,8 134
616 359 GONDE THERESE FV4 1 ACRA ARLES 01:01:02 9,8 135
617 352 BRIANSON ANNE FV1 52 NL 01:01:13 9,8 136
618 173 VELOT NICOLE FV2 24 MC NIMES 01:01:50 9,7 137
619 506 NOUVEL YVES MV1 154 SCAC 01:01:54 9,7 482
620 277 TERME JEAN-LOUIS MV4 6 ALES CEVENNES ATHLETISME 01:02:08 9,7 483
621 144 HUMBERT INGRID FV1 53 NL 01:02:45 9,6 138
622 694 SERVILE MICHEL MV4 7 ASOS NIMES 01:02:50 9,5 484
623 663 RIFFARA AUDREY FSE 51 COURIR A VAUVERT 01:03:16 9,5 139
624 288 GIRARD AIME MV4 8 SC ARLES 01:03:17 9,5 485
625 512 GIROUX THIERRY MV2 83 NL 01:03:18 9,5 486
626 447 MONTANER BEATRICE FV1 54 NL 01:03:19 9,5 140
627 662 MAUREL REMI MSE 180 COURIR A VAUVERT 01:03:20 9,5 487
628 648 ANGILELLA GAETAN MV4 9 NL 01:03:26 9,5 488
629 314 FABRE ALAIN MV3 35 MC NIMES 01:03:29 9,5 489
630 504 AUCLAIN CHRISTIANE FV2 25 NL 01:03:42 9,4 141
631 315 BOTELLA FRANCOIS MV3 36 MC NIMES 01:03:53 9,4 490
632 573 HOUSSAIS ELISABETH FCA 2 NL 01:04:04 9,4 142
633 345 DUGUET LAURENCE FV3 4 NL 01:04:13 9,3 143
634 368 ACHARD SYLVIE FV2 26 MC NIMES 01:04:31 9,3 144
635 594 CHAREYRE ANICK FV2 27 NL 01:04:46 9,3 145
636 609 NOUALLET FLORENCE FV1 55 VETERANS ST HILAIRE 01:05:32 9,2 146
637 411 FAGES PHILIPPE MV2 84 NL 01:05:41 9,1 491
638 608 HAUTIER EMILIE FV3 5 SC ARLES 01:05:45 9,1 147
639 471 GUIEU MAGALIE FV4 2 SC ARLES 01:06:21 9,0 148
640 588 VERNHET CEDRIC MSE 181 NL 01:06:27 9,0 492
641 589 DULON VIRGINIE FSE 52 NL 01:06:27 9,0 149
642 488 ELZIERE LAURENCE FV1 56 NL 01:06:49 9,0 150
643 487 ELZIERE JEAN-PAUL MV1 155 NL 01:06:50 9,0 493
644 597 DESCHRYVER SABINE FV1 57 NL 01:07:17 8,9 151
645 593 PEILLARD VALERIE FV1 58 NL 01:08:29 8,8 152
646 591 TOIRON VERONIQUE FV1 59 NL 01:08:29 8,8 153
647 532 HATAT CHANTAL FV3 6 NL 01:09:08 8,7 154
648 200 CABANERO MARIE-LAURE FV1 60 NL 01:09:10 8,7 155
649 71 EL AMRI MELANIE FES 5 COURIR A VERGEZE 01:09:38 8,6 156
650 291 KIENE LYONEL MV1 156 LUNEL ATHLETISME 01:09:55 8,6 494
651 696 BOUTADE CHRISTIAN MV4 10 MC NIMES 01:10:02 8,6 495
652 714 INCORVAIA ANGELE FV3 7 ALES CEVENNES ATHLETISME 01:11:09 8,4 157
653 171 GINESTOUX FRANCOISE FV2 28 SCL 01:11:10 8,4 158
654 412 NAPOLEON ANDRE MV3 37 NL 01:12:04 8,3 496
655 492 MAGON LUCIE FSE 53 NL 01:12:05 8,3 159
656 493 LUSIAK GWLADYS FSE 54 NL 01:12:06 8,3 160
657 353 LAINE FRANCK MV1 157 NL 01:12:17 8,3 497
658 734 PERRIN MIREILLE FV1 61 NL 01:14:56 8,0 161
659 733 PERRIN ALAIN MV1 158 NL 01:14:57 8,0 498
660 1 LAHSSINI EL HASSAN MSE 0 ALES CEVENNES ATHLETISME 00:00:00 ABD Abd
661 8 BUGEAUD ELIANE FSE 0 ALES CEVENNES ATHLETISME 00:00:00 ABD Abd
662 37 FAYOLLE JULIEN MSE 0 USPA LE PONTET 00:00:00 ABD Abd
663 276 PRABONNEAU DOMINIQUE MV4 0 TEYRAN BIKE 34 00:00:00 ABD Abd